createdAt,value
2023-02-19T00:01:52.192Z,15.35
2023-02-19T00:04:38.220Z,16.10
2023-02-19T00:07:24.151Z,14.82
2023-02-19T00:10:09.917Z,14.45
2023-02-19T00:12:55.779Z,14.70
2023-02-19T00:15:41.589Z,14.82
2023-02-19T00:18:27.417Z,14.52
2023-02-19T00:21:14.249Z,14.15
2023-02-19T00:24:02.528Z,14.00
2023-02-19T00:26:49.139Z,14.32
2023-02-19T00:29:35.311Z,14.07
2023-02-19T00:32:21.208Z,14.65
2023-02-19T00:35:06.921Z,13.32
2023-02-19T00:37:52.842Z,13.77
2023-02-19T00:40:39.048Z,12.95
2023-02-19T00:43:24.909Z,14.73
2023-02-19T00:46:12.605Z,14.05
2023-02-19T00:48:59.035Z,14.07
2023-02-19T00:51:45.482Z,13.35
2023-02-19T00:54:31.638Z,13.43
2023-02-19T00:57:18.004Z,14.93
2023-02-19T01:00:06.622Z,13.65
2023-02-19T01:02:52.718Z,14.20
2023-02-19T01:05:38.662Z,15.30
2023-02-19T01:08:25.262Z,14.52
2023-02-19T01:11:12.195Z,15.48
2023-02-19T01:13:59.816Z,14.85
2023-02-19T01:16:45.701Z,13.60
2023-02-19T01:19:31.591Z,14.00
2023-02-19T01:22:17.233Z,15.38
2023-02-19T01:25:03.219Z,13.20
2023-02-19T01:27:49.159Z,13.43
2023-02-19T01:30:37.381Z,13.70
2023-02-19T01:33:23.278Z,16.05
2023-02-19T01:36:09.632Z,15.32
2023-02-19T01:38:56.097Z,16.52
2023-02-19T01:41:42.069Z,17.42
2023-02-19T01:44:28.286Z,14.32
2023-02-19T01:47:15.437Z,14.32
2023-02-19T01:50:01.445Z,13.95
2023-02-19T01:52:47.727Z,13.93
2023-02-19T01:55:34.259Z,14.02
2023-02-19T01:58:20.537Z,13.32
2023-02-19T02:01:08.389Z,12.85
2023-02-19T02:03:54.566Z,13.68
2023-02-19T02:06:48.999Z,14.05
2023-02-19T02:09:53.740Z,13.18
2023-02-19T02:12:39.584Z,13.35
2023-02-19T02:15:30.143Z,12.52
2023-02-19T02:18:58.639Z,13.88
2023-02-19T02:21:57.373Z,12.95
2023-02-19T02:24:46.611Z,13.43
2023-02-19T02:27:54.309Z,12.50
2023-02-19T02:30:42.323Z,14.00
2023-02-19T02:34:03.165Z,13.50
2023-02-19T02:36:53.094Z,12.65
2023-02-19T02:39:39.939Z,12.60
2023-02-19T02:42:28.913Z,13.27
2023-02-19T02:45:38.055Z,13.35
2023-02-19T02:48:44.302Z,12.23
2023-02-19T02:51:33.826Z,12.73
2023-02-19T02:54:49.097Z,12.40
2023-02-19T02:57:36.806Z,12.60
2023-02-19T03:00:24.443Z,11.75
2023-02-19T03:03:10.330Z,13.05
2023-02-19T03:06:00.060Z,14.30
2023-02-19T03:08:54.402Z,12.77
2023-02-19T03:12:01.617Z,13.23
2023-02-19T03:15:08.116Z,12.23
2023-02-19T03:18:17.035Z,13.13
2023-02-19T03:21:04.570Z,13.77
2023-02-19T03:24:09.444Z,12.50
2023-02-19T03:26:57.272Z,14.15
2023-02-19T03:29:45.240Z,12.65
2023-02-19T03:32:45.279Z,12.07
2023-02-19T03:35:33.558Z,13.20
2023-02-19T03:38:32.345Z,12.57
2023-02-19T03:41:46.541Z,12.02
2023-02-19T03:45:04.415Z,12.55
2023-02-19T03:48:13.953Z,12.25
2023-02-19T03:51:14.816Z,12.55
2023-02-19T03:54:03.581Z,13.15
2023-02-19T03:57:24.130Z,12.40
2023-02-19T04:00:28.380Z,13.30
2023-02-19T04:03:29.020Z,12.60
2023-02-19T04:06:18.352Z,12.75
2023-02-19T04:09:06.925Z,12.43
2023-02-19T04:11:54.090Z,12.75
2023-02-19T04:14:44.688Z,12.13
2023-02-19T04:17:35.983Z,12.40
2023-02-19T04:20:23.511Z,13.23
2023-02-19T04:23:09.687Z,12.52
2023-02-19T04:25:58.972Z,12.05
2023-02-19T04:28:44.660Z,12.32
2023-02-19T04:31:35.337Z,12.18
2023-02-19T04:34:21.572Z,12.45
2023-02-19T04:37:07.686Z,11.75
2023-02-19T04:39:53.383Z,12.93
2023-02-19T04:42:39.291Z,13.00
2023-02-19T04:45:24.899Z,10.82
2023-02-19T04:48:11.059Z,11.65
2023-02-19T04:50:57.307Z,12.77
2023-02-19T04:53:43.112Z,11.10
2023-02-19T04:56:29.208Z,11.90
2023-02-19T04:59:15.137Z,11.50
2023-02-19T05:02:01.029Z,12.02
2023-02-19T05:04:46.838Z,12.02
2023-02-19T05:07:34.313Z,11.43
2023-02-19T05:10:20.327Z,11.90
2023-02-19T05:13:06.124Z,12.50
2023-02-19T05:15:59.133Z,12.35
2023-02-19T05:18:46.104Z,13.07
2023-02-19T05:21:32.094Z,12.27
2023-02-19T05:24:18.057Z,12.77
2023-02-19T05:27:04.026Z,13.48
2023-02-19T05:29:49.970Z,13.10
2023-02-19T05:32:36.048Z,12.75
2023-02-19T05:35:21.822Z,13.15
2023-02-19T05:38:08.240Z,12.68
2023-02-19T05:40:54.032Z,12.23
2023-02-19T05:43:41.406Z,13.07
2023-02-19T05:46:29.922Z,13.73
2023-02-19T05:49:16.122Z,13.80
2023-02-19T05:52:01.977Z,14.77
2023-02-19T05:54:47.940Z,13.70
2023-02-19T05:57:33.838Z,12.73
2023-02-19T06:00:20.493Z,15.73
2023-02-19T06:03:06.504Z,14.90
2023-02-19T06:05:52.389Z,14.32
2023-02-19T06:08:38.341Z,14.30
2023-02-19T06:11:25.228Z,14.02
2023-02-19T06:14:13.858Z,14.65
2023-02-19T06:16:59.570Z,14.05
2023-02-19T06:19:45.397Z,13.77
2023-02-19T06:22:31.346Z,14.57
2023-02-19T06:25:18.447Z,13.27
2023-02-19T06:28:04.878Z,13.18
2023-02-19T06:30:51.583Z,13.45
2023-02-19T06:33:40.522Z,13.13
2023-02-19T06:36:26.678Z,13.68
2023-02-19T06:39:12.505Z,14.95
2023-02-19T06:41:58.404Z,15.18
2023-02-19T06:44:45.460Z,16.52
2023-02-19T06:47:32.665Z,16.17
2023-02-19T06:50:18.738Z,16.63
2023-02-19T06:53:04.834Z,16.38
2023-02-19T06:56:08.310Z,16.00
2023-02-19T06:58:55.940Z,15.13
2023-02-19T07:01:41.721Z,15.10
2023-02-19T07:04:27.663Z,15.88
2023-02-19T07:07:13.962Z,15.95
2023-02-19T07:09:59.864Z,16.73
2023-02-19T07:12:48.646Z,17.40
2023-02-19T07:15:34.720Z,19.55
2023-02-19T07:18:20.592Z,18.90
2023-02-19T07:21:11.741Z,22.15
2023-02-19T07:23:58.546Z,23.17
2023-02-19T07:26:44.149Z,22.83
2023-02-19T07:29:29.939Z,22.95
2023-02-19T07:32:15.662Z,20.23
2023-02-19T07:35:01.517Z,21.08
2023-02-19T07:37:47.329Z,21.95
2023-02-19T07:40:33.237Z,20.85
2023-02-19T07:43:19.488Z,20.73
2023-02-19T07:46:14.761Z,20.90
2023-02-19T07:49:01.133Z,20.08
2023-02-19T07:51:47.042Z,20.63
2023-02-19T07:54:33.045Z,21.75
2023-02-19T07:57:18.835Z,19.98
2023-02-19T08:00:05.104Z,19.92
2023-02-19T08:03:01.262Z,19.65
2023-02-19T08:05:51.091Z,19.45
2023-02-19T08:08:43.520Z,18.73
2023-02-19T08:11:48.083Z,17.80
2023-02-19T08:14:34.090Z,17.10
2023-02-19T08:17:20.124Z,17.17
2023-02-19T08:20:06.232Z,15.35
2023-02-19T08:22:52.331Z,14.65
2023-02-19T08:25:38.974Z,12.45
2023-02-19T08:28:25.369Z,13.98
2023-02-19T08:31:12.719Z,12.48
2023-02-19T08:33:58.815Z,13.45
2023-02-19T08:36:44.670Z,13.98
2023-02-19T08:39:30.502Z,14.07
2023-02-19T08:42:16.297Z,12.07
2023-02-19T08:45:06.023Z,13.40
2023-02-19T08:47:53.746Z,14.00
2023-02-19T08:50:43.702Z,14.93
2023-02-19T08:53:32.204Z,13.95
2023-02-19T08:56:18.342Z,12.43
2023-02-19T08:59:04.174Z,11.60
2023-02-19T09:01:50.207Z,12.63
2023-02-19T09:04:37.832Z,12.73
2023-02-19T09:07:23.773Z,11.07
2023-02-19T09:10:13.850Z,12.00
2023-02-19T09:12:59.734Z,11.57
2023-02-19T09:15:45.689Z,15.63
2023-02-19T09:18:32.054Z,11.20
2023-02-19T09:21:18.060Z,12.73
2023-02-19T09:24:04.130Z,13.05
2023-02-19T09:26:51.556Z,12.98
2023-02-19T09:29:37.764Z,13.15
2023-02-19T09:32:23.592Z,10.63
2023-02-19T09:35:09.312Z,9.52
2023-02-19T09:37:55.240Z,8.60
2023-02-19T09:40:41.109Z,10.25
2023-02-19T09:43:28.237Z,10.00
2023-02-19T09:46:40.559Z,10.80
2023-02-19T09:49:34.181Z,11.43
2023-02-19T09:52:37.113Z,14.90
2023-02-19T09:55:32.802Z,9.32
2023-02-19T09:58:32.497Z,10.30
2023-02-19T10:01:18.853Z,16.55
2023-02-19T10:04:04.758Z,10.30
2023-02-19T10:06:51.747Z,9.63
2023-02-19T10:09:38.469Z,8.85
2023-02-19T10:12:30.109Z,9.43
2023-02-19T10:15:31.105Z,8.70
2023-02-19T10:18:23.255Z,7.95
2023-02-19T10:21:22.238Z,8.53
2023-02-19T10:24:08.709Z,8.82
2023-02-19T10:26:54.634Z,8.90
2023-02-19T10:29:40.788Z,9.45
2023-02-19T10:32:29.582Z,9.35
2023-02-19T10:35:16.538Z,8.70
2023-02-19T10:38:03.916Z,12.07
2023-02-19T10:40:58.465Z,12.07
2023-02-19T10:44:03.418Z,9.50
2023-02-19T10:46:51.524Z,13.75
2023-02-19T10:49:44.008Z,12.77
2023-02-19T10:52:34.370Z,10.30
2023-02-19T10:55:20.903Z,9.43
2023-02-19T10:58:26.096Z,13.25
2023-02-19T11:01:23.110Z,13.35
2023-02-19T11:04:17.922Z,12.88
2023-02-19T11:07:13.278Z,10.05
2023-02-19T11:09:59.530Z,9.98
2023-02-19T11:12:48.412Z,10.60
2023-02-19T11:15:36.108Z,10.13
2023-02-19T11:18:27.671Z,10.48
2023-02-19T11:21:28.734Z,8.00
2023-02-19T11:24:24.919Z,8.73
2023-02-19T11:27:19.245Z,9.63
2023-02-19T11:30:27.003Z,11.27
2023-02-19T11:33:16.020Z,9.45
2023-02-19T11:36:20.491Z,9.63
2023-02-19T11:39:15.826Z,7.63
2023-02-19T11:42:16.148Z,8.98
2023-02-19T11:45:26.206Z,10.02
2023-02-19T11:48:41.654Z,9.57
2023-02-19T11:51:52.453Z,9.82
2023-02-19T11:54:49.279Z,10.30
2023-02-19T11:57:40.879Z,11.07
2023-02-19T12:00:31.464Z,12.00
2023-02-19T12:03:39.233Z,12.43
2023-02-19T12:06:39.384Z,13.00
2023-02-19T12:09:31.412Z,13.45
2023-02-19T12:12:35.051Z,15.30
2023-02-19T12:15:31.984Z,14.63
2023-02-19T12:18:24.789Z,15.05
2023-02-19T12:21:26.675Z,12.05
2023-02-19T12:24:38.087Z,10.23
2023-02-19T12:27:49.635Z,10.02
2023-02-19T12:30:54.499Z,9.77
2023-02-19T12:34:01.878Z,9.27
2023-02-19T12:37:25.276Z,11.00
2023-02-19T12:43:15.483Z,10.40
2023-02-19T12:46:21.689Z,8.90
2023-02-19T12:49:40.026Z,9.35
2023-02-19T12:52:28.683Z,8.10
2023-02-19T12:55:37.790Z,11.15
2023-02-19T12:58:32.490Z,12.23
2023-02-19T13:01:23.738Z,9.10
2023-02-19T13:04:31.252Z,11.48
2023-02-19T13:07:21.845Z,9.05
2023-02-19T13:10:10.844Z,11.45
2023-02-19T13:13:00.561Z,10.98
2023-02-19T13:15:53.278Z,8.65
2023-02-19T13:18:49.039Z,9.48
2023-02-19T13:21:55.957Z,10.00
2023-02-19T13:24:42.619Z,8.68
2023-02-19T13:27:43.054Z,11.00
2023-02-19T13:30:36.278Z,12.32
2023-02-19T13:33:46.582Z,8.13
2023-02-19T13:36:35.024Z,16.23
2023-02-19T13:39:21.948Z,10.75
2023-02-19T13:42:24.644Z,18.92
2023-02-19T13:45:22.208Z,10.77
2023-02-19T13:48:14.456Z,13.82
2023-02-19T13:51:29.527Z,12.87
2023-02-19T13:54:22.889Z,10.35
2023-02-19T13:57:23.971Z,8.43
2023-02-19T14:00:49.467Z,21.80
2023-02-19T14:04:08.213Z,12.10
2023-02-19T14:07:03.363Z,8.73
2023-02-19T14:09:49.791Z,12.80
2023-02-19T14:12:37.054Z,15.63
2023-02-19T14:15:44.288Z,16.70
2023-02-19T14:18:46.615Z,9.57
2023-02-19T14:21:38.516Z,11.95
2023-02-19T14:24:25.792Z,14.53
2023-02-19T14:27:12.213Z,10.77
2023-02-19T14:29:58.546Z,17.67
2023-02-19T14:32:47.471Z,15.07
2023-02-19T14:35:47.833Z,9.95
2023-02-19T14:38:39.752Z,26.60
2023-02-19T14:41:26.240Z,12.37
2023-02-19T14:44:18.660Z,14.15
2023-02-19T14:47:11.902Z,14.38
2023-02-19T14:50:02.785Z,12.38
2023-02-19T14:52:50.241Z,10.93
2023-02-19T14:55:37.953Z,9.20
2023-02-19T14:58:28.608Z,9.00
2023-02-19T15:01:28.053Z,9.95
2023-02-19T15:04:34.661Z,14.65
2023-02-19T15:07:23.899Z,12.13
2023-02-19T15:10:12.633Z,15.68
2023-02-19T15:13:01.667Z,19.25
2023-02-19T15:15:47.914Z,28.38
2023-02-19T15:18:36.619Z,19.85
2023-02-19T15:21:28.152Z,15.55
2023-02-19T15:24:16.147Z,15.50
2023-02-19T15:27:02.095Z,12.38
2023-02-19T15:29:51.726Z,19.35
2023-02-19T15:32:39.158Z,17.08
2023-02-19T15:35:27.142Z,16.38
2023-02-19T15:38:12.935Z,26.65
2023-02-19T15:40:59.545Z,15.27
2023-02-19T15:43:58.694Z,20.65
2023-02-19T15:46:45.590Z,17.38
2023-02-19T15:49:45.105Z,14.55
2023-02-19T15:52:38.879Z,12.95
2023-02-19T15:55:33.719Z,12.40
2023-02-19T15:58:28.837Z,22.63
2023-02-19T16:01:25.209Z,16.85
2023-02-19T16:04:14.030Z,17.50
2023-02-19T16:07:02.338Z,15.95
2023-02-19T16:09:47.981Z,14.52
2023-02-19T16:12:34.031Z,16.90
2023-02-19T16:15:20.861Z,12.98
2023-02-19T16:18:06.895Z,15.35
2023-02-19T16:20:52.817Z,18.23
2023-02-19T16:23:43.011Z,20.13
2023-02-19T16:26:29.514Z,19.98
2023-02-19T16:29:20.561Z,19.48
2023-02-19T16:32:14.119Z,19.95
2023-02-19T16:35:03.336Z,20.98
2023-02-19T16:37:59.645Z,19.38
2023-02-19T16:40:53.271Z,18.38
2023-02-19T16:43:43.623Z,16.33
2023-02-19T16:46:32.544Z,15.02
2023-02-19T16:49:18.930Z,14.40
2023-02-19T16:52:05.301Z,11.68
2023-02-19T16:54:51.512Z,13.50
2023-02-19T16:57:37.360Z,13.98
2023-02-19T17:00:31.222Z,13.07
2023-02-19T17:03:22.134Z,15.15
2023-02-19T17:06:08.269Z,13.68
2023-02-19T17:08:54.139Z,14.52
2023-02-19T17:11:40.307Z,11.82
2023-02-19T17:14:26.528Z,12.18
2023-02-19T17:17:12.697Z,14.75
2023-02-19T17:19:58.748Z,15.10
2023-02-19T17:22:44.935Z,19.05
2023-02-19T17:25:31.808Z,18.58
2023-02-19T17:28:17.848Z,16.67
2023-02-19T17:31:04.190Z,17.50
2023-02-19T17:33:50.675Z,16.17
2023-02-19T17:36:38.113Z,19.25
2023-02-19T17:39:24.214Z,17.45
2023-02-19T17:42:10.418Z,17.95
2023-02-19T17:44:56.255Z,21.25
2023-02-19T17:47:42.291Z,23.42
2023-02-19T17:50:32.376Z,27.33
2023-02-19T17:53:18.892Z,25.58
2023-02-19T17:56:05.174Z,26.60
2023-02-19T17:58:51.902Z,22.42
2023-02-19T18:01:38.288Z,23.33
2023-02-19T18:04:24.236Z,24.88
2023-02-19T18:07:09.959Z,32.05
2023-02-19T18:09:56.240Z,27.25
2023-02-19T18:12:42.710Z,27.08
2023-02-19T18:15:29.001Z,22.40
2023-02-19T18:18:15.182Z,21.05
2023-02-19T18:21:01.219Z,20.23
2023-02-19T18:23:47.103Z,20.15
2023-02-19T18:26:33.743Z,19.80
2023-02-19T18:29:20.214Z,19.23
2023-02-19T18:32:06.179Z,24.08
2023-02-19T18:34:54.418Z,22.80
2023-02-19T18:37:40.242Z,78.47
2023-02-19T18:40:26.056Z,59.70
2023-02-19T18:43:13.145Z,52.50
2023-02-19T18:45:59.487Z,48.63
2023-02-19T18:48:45.677Z,54.83
2023-02-19T18:51:31.934Z,57.33
2023-02-19T18:54:17.761Z,69.10
2023-02-19T18:57:04.599Z,77.30
2023-02-19T18:59:50.810Z,66.13
2023-02-19T19:02:48.614Z,54.60
2023-02-19T19:05:35.176Z,61.15
2023-02-19T19:08:20.873Z,55.60
2023-02-19T19:11:06.718Z,51.38
2023-02-19T19:13:52.992Z,52.13
2023-02-19T19:16:39.123Z,44.17
2023-02-19T19:19:25.027Z,45.38
2023-02-19T19:22:10.950Z,47.33
2023-02-19T19:24:56.814Z,45.13
2023-02-19T19:27:42.803Z,45.08
2023-02-19T19:30:28.624Z,43.15
2023-02-19T19:33:14.407Z,40.80
2023-02-19T19:36:00.124Z,38.35
2023-02-19T19:38:46.600Z,42.08
2023-02-19T19:41:32.609Z,49.35
2023-02-19T19:44:18.405Z,27.70
2023-02-19T19:47:04.423Z,25.70
2023-02-19T19:49:50.649Z,24.40
2023-02-19T19:52:36.384Z,22.58
2023-02-19T19:55:22.382Z,20.50
2023-02-19T19:58:08.386Z,22.60
2023-02-19T20:00:54.869Z,21.95
2023-02-19T20:03:41.358Z,22.65
2023-02-19T20:06:29.865Z,18.08
2023-02-19T20:09:17.722Z,18.25
2023-02-19T20:12:04.492Z,18.02
2023-02-19T20:14:50.462Z,15.60
2023-02-19T20:17:36.433Z,17.08
2023-02-19T20:20:22.749Z,15.70
2023-02-19T20:23:09.624Z,15.73
2023-02-19T20:25:58.473Z,16.42
2023-02-19T20:28:46.531Z,16.45
2023-02-19T20:31:34.672Z,16.65
2023-02-19T20:34:22.760Z,38.35
2023-02-19T20:37:08.967Z,25.88
2023-02-19T20:39:54.870Z,22.05
2023-02-19T20:42:40.879Z,25.35
2023-02-19T20:45:28.303Z,24.40
2023-02-19T20:48:17.649Z,23.17
2023-02-19T20:51:04.027Z,25.77
2023-02-19T20:53:49.760Z,25.40
2023-02-19T20:56:35.670Z,25.90
2023-02-19T20:59:23.608Z,22.65
2023-02-19T21:02:16.594Z,20.75
2023-02-19T21:05:03.227Z,19.02
2023-02-19T21:07:49.412Z,21.35
2023-02-19T21:10:35.720Z,21.33
2023-02-19T21:13:21.535Z,21.25
2023-02-19T21:16:07.635Z,19.30
2023-02-19T21:18:53.794Z,18.73
2023-02-19T21:21:40.486Z,25.67
2023-02-19T21:24:26.568Z,18.73
2023-02-19T21:27:12.558Z,18.83
2023-02-19T21:29:58.554Z,20.50
2023-02-19T21:32:44.510Z,17.48
2023-02-19T21:35:30.791Z,19.00
2023-02-19T21:38:16.795Z,20.88
2023-02-19T21:41:02.896Z,20.95
2023-02-19T21:43:48.659Z,22.65
2023-02-19T21:46:34.692Z,25.55
2023-02-19T21:49:21.561Z,29.33
2023-02-19T21:52:07.581Z,28.92
2023-02-19T21:54:53.727Z,23.73
2023-02-19T21:57:39.856Z,20.88
2023-02-19T22:00:25.880Z,19.58
2023-02-19T22:03:16.188Z,18.17
2023-02-19T22:06:02.413Z,18.27
2023-02-19T22:08:48.498Z,18.13
2023-02-19T22:11:34.521Z,19.60
2023-02-19T22:14:20.630Z,18.38
2023-02-19T22:17:06.413Z,21.40
2023-02-19T22:19:52.495Z,19.98
2023-02-19T22:22:38.173Z,18.30
2023-02-19T22:25:24.252Z,17.45
2023-02-19T22:28:10.585Z,18.13
2023-02-19T22:30:56.547Z,18.27
2023-02-19T22:33:42.495Z,19.95
2023-02-19T22:36:33.364Z,20.90
2023-02-19T22:39:25.116Z,21.45
2023-02-19T22:42:10.812Z,20.42
2023-02-19T22:44:56.808Z,19.90
2023-02-19T22:47:43.927Z,19.13
2023-02-19T22:50:30.684Z,19.05
2023-02-19T22:53:16.741Z,18.15
2023-02-19T22:56:02.823Z,17.63
2023-02-19T22:58:49.163Z,20.00
2023-02-19T23:01:35.678Z,21.73
2023-02-19T23:04:22.858Z,20.15
2023-02-19T23:07:08.823Z,18.50
2023-02-19T23:09:54.640Z,17.08
2023-02-19T23:12:41.266Z,16.23
2023-02-19T23:15:26.910Z,14.95
2023-02-19T23:18:12.705Z,15.18
2023-02-19T23:20:58.468Z,13.85
2023-02-19T23:23:45.762Z,16.45
2023-02-19T23:26:31.929Z,14.07
2023-02-19T23:29:25.078Z,15.48
2023-02-19T23:32:11.276Z,17.27
2023-02-19T23:34:56.947Z,15.95
2023-02-19T23:37:43.077Z,16.27
2023-02-19T23:40:29.198Z,17.98
2023-02-19T23:43:15.138Z,16.33
2023-02-19T23:46:01.909Z,14.48
2023-02-19T23:48:47.843Z,14.07
2023-02-19T23:51:33.892Z,16.55
2023-02-19T23:54:19.728Z,15.65
2023-02-19T23:57:05.704Z,16.33
2023-02-19T23:59:51.891Z,16.98
